createdAt,value
2024-03-01T00:01:03.727Z,0.90
2024-03-01T00:03:58.253Z,0.82
2024-03-01T00:06:52.929Z,0.98
2024-03-01T00:09:47.318Z,0.80
2024-03-01T00:12:41.723Z,1.00
2024-03-01T00:15:36.870Z,0.80
2024-03-01T00:18:31.198Z,0.95
2024-03-01T00:21:26.173Z,0.93
2024-03-01T00:24:20.642Z,0.90
2024-03-01T00:27:14.985Z,0.80
2024-03-01T00:30:10.322Z,0.82
2024-03-01T00:33:05.854Z,0.70
2024-03-01T00:36:00.284Z,0.70
2024-03-01T00:38:54.665Z,1.10
2024-03-01T00:41:49.055Z,1.08
2024-03-01T00:44:43.419Z,0.90
2024-03-01T00:47:37.821Z,1.00
2024-03-01T00:50:32.391Z,1.00
2024-03-01T00:53:26.774Z,0.95
2024-03-01T00:56:21.573Z,1.00
2024-03-01T00:59:15.983Z,1.00
2024-03-01T01:02:11.258Z,0.90
2024-03-01T01:05:05.830Z,1.05
2024-03-01T01:08:00.138Z,0.98
2024-03-01T01:10:54.582Z,1.00
2024-03-01T01:13:48.998Z,1.58
2024-03-01T01:16:43.342Z,1.20
2024-03-01T01:19:37.783Z,1.30
2024-03-01T01:22:32.240Z,1.02
2024-03-01T01:25:26.669Z,1.13
2024-03-01T01:28:21.201Z,1.30
2024-03-01T01:31:15.662Z,1.02
2024-03-01T01:34:10.244Z,1.05
2024-03-01T01:37:06.334Z,1.33
2024-03-01T01:40:00.908Z,1.40
2024-03-01T01:42:57.062Z,1.35
2024-03-01T01:45:51.661Z,1.38
2024-03-01T01:48:47.008Z,1.25
2024-03-01T01:51:43.540Z,1.10
2024-03-01T01:54:38.260Z,0.95
2024-03-01T01:57:32.744Z,1.23
2024-03-01T02:00:27.135Z,1.30
2024-03-01T02:03:24.297Z,1.15
2024-03-01T02:06:18.686Z,1.08
2024-03-01T02:09:20.493Z,1.00
2024-03-01T02:12:16.822Z,1.25
2024-03-01T02:15:11.668Z,1.30
2024-03-01T02:18:06.543Z,1.50
2024-03-01T02:21:04.216Z,1.20
2024-03-01T02:23:58.661Z,1.00
2024-03-01T02:27:02.605Z,0.98
2024-03-01T02:29:57.514Z,1.20
2024-03-01T02:32:52.032Z,0.95
2024-03-01T02:35:46.668Z,0.98
2024-03-01T02:38:41.065Z,1.15
2024-03-01T02:41:35.429Z,1.20
2024-03-01T02:44:29.765Z,0.82
2024-03-01T02:47:24.092Z,1.00
2024-03-01T02:50:18.724Z,1.13
2024-03-01T02:53:13.232Z,0.98
2024-03-01T02:56:07.887Z,1.20
2024-03-01T02:59:02.301Z,1.30
2024-03-01T03:01:56.790Z,1.48
2024-03-01T03:04:51.176Z,1.25
2024-03-01T03:07:45.601Z,1.08
2024-03-01T03:10:41.174Z,1.00
2024-03-01T03:13:35.639Z,0.95
2024-03-01T03:16:30.155Z,0.98
2024-03-01T03:19:25.657Z,1.10
2024-03-01T03:22:20.197Z,1.60
2024-03-01T03:25:17.750Z,1.52
2024-03-01T03:28:12.206Z,1.70
2024-03-01T03:31:06.785Z,1.20
2024-03-01T03:34:01.437Z,1.02
2024-03-01T03:36:55.873Z,1.67
2024-03-01T03:39:50.380Z,1.27
2024-03-01T03:42:45.920Z,1.23
2024-03-01T03:45:40.417Z,1.52
2024-03-01T03:48:36.138Z,1.05
2024-03-01T03:51:32.498Z,1.35
2024-03-01T03:54:27.119Z,1.83
2024-03-01T03:57:21.474Z,1.17
2024-03-01T04:00:18.528Z,1.17
2024-03-01T04:03:12.877Z,1.33
2024-03-01T04:06:09.462Z,1.00
2024-03-01T04:09:06.049Z,0.80
2024-03-01T04:12:01.506Z,0.85
2024-03-01T04:14:55.973Z,1.27
2024-03-01T04:17:50.711Z,0.90
2024-03-01T04:20:46.660Z,0.98
2024-03-01T04:23:41.123Z,0.87
2024-03-01T04:26:35.470Z,0.73
2024-03-01T04:29:31.443Z,0.70
2024-03-01T04:32:25.823Z,0.70
2024-03-01T04:35:20.239Z,1.30
2024-03-01T04:38:15.069Z,0.90
2024-03-01T04:41:09.542Z,0.65
2024-03-01T04:44:03.897Z,0.70
2024-03-01T04:46:58.669Z,0.90
2024-03-01T04:49:53.023Z,0.93
2024-03-01T04:52:47.537Z,0.60
2024-03-01T04:55:43.513Z,0.80
2024-03-01T04:58:40.689Z,0.53
2024-03-01T05:01:35.192Z,0.70
2024-03-01T05:04:29.567Z,0.52
2024-03-01T05:07:23.987Z,0.80
2024-03-01T05:10:24.396Z,0.63
2024-03-01T05:13:22.691Z,0.50
2024-03-01T05:16:21.255Z,0.80
2024-03-01T05:19:15.829Z,0.57
2024-03-01T05:22:14.913Z,0.88
2024-03-01T05:25:19.737Z,0.70
2024-03-01T05:28:14.141Z,0.88
2024-03-01T05:31:18.580Z,0.70
2024-03-01T05:34:18.423Z,0.60
2024-03-01T05:37:12.841Z,0.60
2024-03-01T05:40:08.343Z,0.70
2024-03-01T05:43:02.715Z,0.80
2024-03-01T05:46:00.365Z,0.90
2024-03-01T05:48:55.545Z,0.50
2024-03-01T05:51:50.027Z,0.63
2024-03-01T05:54:44.372Z,0.40
2024-03-01T05:57:39.105Z,0.52
2024-03-01T06:00:33.794Z,0.85
2024-03-01T06:03:28.563Z,1.13
2024-03-01T06:06:22.865Z,1.10
2024-03-01T06:09:18.953Z,0.80
2024-03-01T06:12:13.532Z,0.82
2024-03-01T06:15:08.666Z,0.90
2024-03-01T06:18:03.077Z,0.70
2024-03-01T06:20:57.496Z,0.90
2024-03-01T06:23:51.968Z,0.65
2024-03-01T06:26:46.293Z,0.77
2024-03-01T06:29:40.764Z,1.00
2024-03-01T06:32:35.335Z,0.60
2024-03-01T06:35:29.684Z,0.70
2024-03-01T06:38:24.071Z,0.50
2024-03-01T06:41:18.445Z,0.88
2024-03-01T06:44:12.929Z,0.40
2024-03-01T06:47:14.866Z,0.57
2024-03-01T06:50:11.521Z,0.60
2024-03-01T06:53:06.009Z,1.02
2024-03-01T06:56:00.485Z,1.15
2024-03-01T06:58:54.866Z,0.40
2024-03-01T07:01:49.297Z,0.75
2024-03-01T07:04:43.669Z,0.50
2024-03-01T07:07:39.255Z,1.17
2024-03-01T07:10:33.877Z,0.80
2024-03-01T07:13:28.415Z,0.60
2024-03-01T07:16:23.168Z,0.73
2024-03-01T07:19:18.134Z,0.77
2024-03-01T07:22:12.736Z,0.93
2024-03-01T07:25:08.223Z,0.60
2024-03-01T07:28:03.540Z,0.82
2024-03-01T07:30:57.906Z,0.90
2024-03-01T07:33:52.455Z,0.60
2024-03-01T07:36:46.842Z,0.90
2024-03-01T07:39:41.670Z,0.50
2024-03-01T07:42:36.105Z,0.80
2024-03-01T07:45:31.341Z,0.80
2024-03-01T07:48:27.385Z,1.02
2024-03-01T07:51:21.658Z,0.90
2024-03-01T07:54:16.154Z,1.00
2024-03-01T07:57:10.537Z,1.02
2024-03-01T08:00:05.821Z,1.23
2024-03-01T08:03:13.369Z,1.27
2024-03-01T08:09:02.118Z,1.08
2024-03-01T08:11:57.404Z,1.10
2024-03-01T08:14:56.651Z,1.20
2024-03-01T08:17:51.135Z,1.20
2024-03-01T08:21:09.944Z,1.48
2024-03-01T08:24:04.512Z,1.08
2024-03-01T08:26:58.914Z,1.17
2024-03-01T08:29:54.245Z,1.00
2024-03-01T08:32:49.126Z,1.00
2024-03-01T08:35:44.629Z,1.67
2024-03-01T08:38:47.868Z,1.25
2024-03-01T08:41:45.283Z,1.10
2024-03-01T08:45:05.387Z,0.95
2024-03-01T08:48:14.362Z,1.67
2024-03-01T08:51:10.757Z,1.10
2024-03-01T08:54:06.113Z,1.37
2024-03-01T08:57:09.029Z,0.82
2024-03-01T09:00:04.138Z,0.70
2024-03-01T09:02:58.538Z,0.57
2024-03-01T09:05:54.894Z,0.57
2024-03-01T09:08:49.415Z,0.70
2024-03-01T09:11:46.853Z,1.00
2024-03-01T09:14:41.236Z,0.90
2024-03-01T09:17:35.688Z,1.20
2024-03-01T09:20:37.308Z,0.70
2024-03-01T09:23:32.061Z,0.80
2024-03-01T09:26:27.070Z,0.65
2024-03-01T09:29:37.559Z,0.50
2024-03-01T09:32:35.781Z,0.90
2024-03-01T09:35:30.927Z,0.90
2024-03-01T09:38:25.565Z,0.80
2024-03-01T09:42:16.859Z,0.98
2024-03-01T09:45:26.662Z,0.80
2024-03-01T09:48:31.805Z,0.80
2024-03-01T09:51:33.751Z,0.80
2024-03-01T09:54:39.184Z,0.80
2024-03-01T09:58:04.703Z,0.70
2024-03-01T10:01:07.229Z,0.80
2024-03-01T10:04:09.840Z,1.00
2024-03-01T10:07:07.521Z,0.80
2024-03-01T10:10:04.993Z,0.65
2024-03-01T10:13:11.895Z,0.80
2024-03-01T10:16:15.883Z,0.68
2024-03-01T10:19:16.101Z,0.95
2024-03-01T10:23:03.303Z,0.70
2024-03-01T10:26:15.272Z,0.70
2024-03-01T10:29:33.648Z,0.60
2024-03-01T10:32:34.066Z,0.70
2024-03-01T10:35:37.413Z,0.50
2024-03-01T10:38:37.888Z,0.60
2024-03-01T10:41:47.505Z,0.70
2024-03-01T10:44:54.319Z,0.60
2024-03-01T10:47:49.665Z,0.80
2024-03-01T10:50:51.858Z,0.65
2024-03-01T10:53:57.997Z,0.73
2024-03-01T10:56:54.907Z,0.90
2024-03-01T11:00:09.023Z,1.00
2024-03-01T11:03:14.469Z,0.60
2024-03-01T11:06:16.945Z,0.60
2024-03-01T11:09:12.308Z,0.40
2024-03-01T11:12:12.439Z,0.50
2024-03-01T11:14:56.916Z,0.47
2024-03-01T11:17:33.863Z,0.50
2024-03-01T11:21:14.761Z,0.47
2024-03-01T11:24:22.309Z,0.40
2024-03-01T11:30:20.532Z,0.45
2024-03-01T11:33:17.187Z,0.50
2024-03-01T11:36:30.632Z,0.30
2024-03-01T11:39:51.082Z,0.40
2024-03-01T11:42:51.502Z,1.15
2024-03-01T11:45:48.975Z,0.55
2024-03-01T11:49:08.435Z,0.35
2024-03-01T11:52:26.022Z,0.32
2024-03-01T11:55:20.447Z,0.30
2024-03-01T11:58:39.332Z,0.30
2024-03-01T12:01:54.154Z,0.57
2024-03-01T12:04:54.776Z,0.22
2024-03-01T12:08:08.647Z,0.43
2024-03-01T12:11:20.989Z,0.45
2024-03-01T12:14:24.037Z,0.20
2024-03-01T12:17:26.453Z,0.28
2024-03-01T12:20:21.009Z,0.20
2024-03-01T12:23:37.760Z,0.47
2024-03-01T12:26:49.050Z,0.30
2024-03-01T12:29:58.823Z,0.25
2024-03-01T12:33:17.638Z,0.22
2024-03-01T12:36:18.609Z,0.40
2024-03-01T12:39:20.726Z,0.30
2024-03-01T12:42:49.134Z,0.45
2024-03-01T12:46:01.863Z,0.65
2024-03-01T12:49:47.461Z,0.43
2024-03-01T12:52:54.171Z,0.45
2024-03-01T12:56:06.713Z,0.47
2024-03-01T12:59:19.571Z,0.47
2024-03-01T13:02:34.080Z,0.38
2024-03-01T13:05:44.245Z,0.63
2024-03-01T13:08:58.809Z,0.32
2024-03-01T13:11:55.186Z,0.35
2024-03-01T13:15:09.135Z,0.27
2024-03-01T13:18:21.042Z,0.40
2024-03-01T13:21:25.717Z,0.30
2024-03-01T13:24:46.271Z,0.30
2024-03-01T13:28:17.039Z,0.50
2024-03-01T13:31:17.733Z,0.30
2024-03-01T13:34:20.473Z,0.40
2024-03-01T13:37:18.417Z,0.25
2024-03-01T13:41:07.585Z,0.40
2024-03-01T13:44:34.411Z,0.30
2024-03-01T13:47:34.338Z,0.30
2024-03-01T13:50:37.909Z,0.45
2024-03-01T13:53:32.979Z,0.30
2024-03-01T13:56:28.351Z,0.40
2024-03-01T13:59:22.734Z,0.30
2024-03-01T14:02:18.586Z,0.30
2024-03-01T14:05:16.471Z,0.28
2024-03-01T14:08:11.345Z,0.40
2024-03-01T14:11:06.348Z,0.40
2024-03-01T14:14:00.809Z,0.57
2024-03-01T14:16:55.378Z,0.20
2024-03-01T14:19:49.835Z,0.30
2024-03-01T14:22:48.528Z,0.47
2024-03-01T14:25:45.251Z,0.47
2024-03-01T14:28:40.105Z,0.30
2024-03-01T14:31:34.640Z,0.20
2024-03-01T14:34:38.593Z,0.40
2024-03-01T14:37:33.139Z,0.30
2024-03-01T14:40:28.948Z,0.20
2024-03-01T14:43:23.384Z,0.45
2024-03-01T14:46:50.375Z,0.40
2024-03-01T14:49:45.710Z,0.30
2024-03-01T14:52:42.097Z,0.30
2024-03-01T14:55:38.421Z,0.30
2024-03-01T14:58:33.861Z,0.52
2024-03-01T15:01:31.144Z,0.25
2024-03-01T15:07:19.855Z,0.20
2024-03-01T15:10:27.539Z,0.20
2024-03-01T15:16:30.239Z,0.30
2024-03-01T15:19:24.635Z,0.40
2024-03-01T15:22:20.576Z,0.32
2024-03-01T15:25:14.971Z,0.30
2024-03-01T15:28:11.929Z,0.30
2024-03-01T15:31:07.844Z,0.43
2024-03-01T15:34:02.308Z,0.45
2024-03-01T15:36:56.656Z,0.30
2024-03-01T15:39:51.876Z,0.28
2024-03-01T15:42:46.378Z,0.40
2024-03-01T15:45:40.910Z,0.40
2024-03-01T15:48:35.283Z,0.52
2024-03-01T15:51:30.051Z,0.40
2024-03-01T15:54:24.406Z,0.30
2024-03-01T15:57:19.140Z,0.30
2024-03-01T16:00:18.088Z,0.40
2024-03-01T16:03:12.997Z,0.25
2024-03-01T16:06:08.198Z,0.35
2024-03-01T16:09:07.354Z,0.50
2024-03-01T16:12:01.706Z,0.40
2024-03-01T16:14:57.206Z,0.25
2024-03-01T16:17:52.056Z,0.40
2024-03-01T16:20:46.966Z,0.43
2024-03-01T16:23:43.898Z,0.20
2024-03-01T16:26:38.497Z,0.45
2024-03-01T16:29:37.684Z,0.40
2024-03-01T16:32:35.479Z,0.43
2024-03-01T16:35:35.984Z,0.50
2024-03-01T16:38:30.923Z,0.30
2024-03-01T16:41:25.226Z,0.40
2024-03-01T16:44:34.980Z,0.40
2024-03-01T16:47:37.293Z,0.60
2024-03-01T16:50:32.127Z,0.20
2024-03-01T16:53:27.238Z,0.50
2024-03-01T16:56:21.633Z,0.32
2024-03-01T16:59:17.203Z,0.40
2024-03-01T17:02:33.992Z,0.88
2024-03-01T17:05:48.467Z,0.30
2024-03-01T17:08:45.972Z,0.60
2024-03-01T17:11:46.023Z,0.75
2024-03-01T17:14:43.520Z,0.52
2024-03-01T17:17:37.869Z,0.40
2024-03-01T17:20:33.237Z,0.30
2024-03-01T17:23:27.589Z,0.40
2024-03-01T17:26:24.695Z,0.85
2024-03-01T17:32:13.215Z,0.30
2024-03-01T17:35:08.055Z,0.30
2024-03-01T17:38:02.775Z,0.38
2024-03-01T17:40:58.092Z,0.98
2024-03-01T17:43:52.524Z,0.55
2024-03-01T17:46:47.012Z,0.52
2024-03-01T17:49:42.303Z,0.22
2024-03-01T17:52:37.232Z,0.30
2024-03-01T17:55:32.962Z,0.50
2024-03-01T17:58:27.456Z,0.40
2024-03-01T18:01:21.958Z,0.43
2024-03-01T18:04:16.427Z,0.30
2024-03-01T18:07:11.194Z,0.40
2024-03-01T18:10:07.443Z,0.50
2024-03-01T18:13:01.964Z,0.22
2024-03-01T18:15:59.559Z,0.25
2024-03-01T18:18:53.875Z,0.30
2024-03-01T18:21:48.355Z,0.40
2024-03-01T18:24:47.548Z,0.40
2024-03-01T18:27:42.051Z,0.28
2024-03-01T18:30:36.914Z,0.63
2024-03-01T18:33:32.377Z,0.30
2024-03-01T18:36:26.765Z,0.20
2024-03-01T18:39:21.087Z,0.10
2024-03-01T18:42:15.886Z,0.20
2024-03-01T18:45:11.519Z,0.30
2024-03-01T18:48:06.334Z,0.30
2024-03-01T18:51:00.721Z,0.47
2024-03-01T18:53:55.454Z,0.20
2024-03-01T18:56:49.859Z,0.20
2024-03-01T18:59:48.741Z,0.40
2024-03-01T19:02:43.451Z,0.40
2024-03-01T19:05:37.886Z,0.50
2024-03-01T19:08:32.279Z,0.32
2024-03-01T19:11:27.758Z,0.43
2024-03-01T19:14:22.510Z,0.30
2024-03-01T19:17:16.846Z,0.50
2024-03-01T19:20:12.852Z,0.28
2024-03-01T19:23:07.371Z,0.32
2024-03-01T19:26:04.828Z,0.38
2024-03-01T19:29:00.677Z,0.73
2024-03-01T19:31:55.009Z,0.40
2024-03-01T19:34:51.533Z,0.30
2024-03-01T19:37:45.885Z,0.40
2024-03-01T19:40:40.446Z,0.28
2024-03-01T19:43:34.856Z,0.45
2024-03-01T19:46:29.809Z,0.40
2024-03-01T19:49:24.245Z,0.40
2024-03-01T19:52:18.693Z,0.40
2024-03-01T19:55:13.062Z,0.50
2024-03-01T19:58:07.500Z,0.47
2024-03-01T20:01:01.940Z,0.30
2024-03-01T20:03:56.359Z,0.40
2024-03-01T20:06:53.101Z,0.30
2024-03-01T20:09:47.503Z,0.40
2024-03-01T20:12:41.994Z,0.30
2024-03-01T20:15:37.780Z,0.40
2024-03-01T20:18:32.183Z,0.50
2024-03-01T20:21:26.604Z,0.50
2024-03-01T20:24:21.295Z,0.50
2024-03-01T20:27:15.700Z,0.40
2024-03-01T20:30:10.605Z,0.50
2024-03-01T20:33:05.042Z,0.40
2024-03-01T20:36:01.648Z,0.40
2024-03-01T20:38:56.060Z,0.40
2024-03-01T20:41:50.407Z,0.68
2024-03-01T20:44:47.274Z,0.80
2024-03-01T20:47:41.676Z,0.80
2024-03-01T20:50:36.110Z,0.60
2024-03-01T20:53:31.950Z,0.60
2024-03-01T20:56:27.108Z,0.50
2024-03-01T20:59:21.480Z,0.30
2024-03-01T21:02:15.892Z,0.70
2024-03-01T21:05:11.758Z,0.90
2024-03-01T21:08:07.580Z,0.60
2024-03-01T21:11:02.003Z,0.63
2024-03-01T21:13:56.414Z,0.82
2024-03-01T21:16:50.848Z,0.70
2024-03-01T21:19:45.293Z,0.80
2024-03-01T21:25:40.925Z,0.68
2024-03-01T21:28:35.252Z,0.52
2024-03-01T21:31:29.720Z,1.02
2024-03-01T21:34:24.035Z,0.50
2024-03-01T21:37:18.392Z,0.50
2024-03-01T21:40:23.053Z,0.65
2024-03-01T21:43:17.427Z,0.60
2024-03-01T21:46:11.963Z,0.52
2024-03-01T21:49:06.324Z,0.63
2024-03-01T21:52:01.109Z,0.80
2024-03-01T21:54:55.620Z,0.60
2024-03-01T21:57:50.042Z,0.50
2024-03-01T22:00:44.581Z,0.47
2024-03-01T22:03:39.046Z,0.43
2024-03-01T22:06:35.303Z,0.70
2024-03-01T22:09:29.682Z,0.60
2024-03-01T22:12:24.549Z,0.50
2024-03-01T22:15:20.068Z,0.40
2024-03-01T22:18:14.588Z,0.32
2024-03-01T22:21:09.010Z,0.63
2024-03-01T22:24:03.307Z,0.60
2024-03-01T22:27:01.118Z,1.00
2024-03-01T22:29:55.502Z,0.40
2024-03-01T22:32:49.878Z,0.35
2024-03-01T22:35:44.437Z,0.40
2024-03-01T22:38:39.785Z,0.50
2024-03-01T22:41:34.182Z,0.40
2024-03-01T22:44:28.683Z,0.40
2024-03-01T22:47:24.170Z,0.40
2024-03-01T22:50:18.621Z,0.55
2024-03-01T22:53:26.852Z,0.60
2024-03-01T22:56:22.318Z,0.50
2024-03-01T22:59:58.674Z,0.30
2024-03-01T23:02:57.627Z,0.43
2024-03-01T23:06:03.673Z,0.40
2024-03-01T23:09:02.378Z,0.45
2024-03-01T23:11:56.761Z,0.50
2024-03-01T23:14:51.935Z,0.50
2024-03-01T23:17:46.406Z,0.50
2024-03-01T23:20:44.336Z,0.52
2024-03-01T23:23:42.252Z,0.70
2024-03-01T23:26:36.647Z,0.60
2024-03-01T23:29:30.964Z,0.50
2024-03-01T23:32:25.366Z,0.82
2024-03-01T23:35:21.493Z,0.57
2024-03-01T23:38:15.843Z,0.60
2024-03-01T23:41:11.395Z,0.47
2024-03-01T23:44:05.759Z,0.55
2024-03-01T23:47:00.143Z,0.40
2024-03-01T23:49:54.714Z,0.75
2024-03-01T23:52:49.426Z,0.65
2024-03-01T23:55:43.759Z,0.60
2024-03-01T23:58:44.888Z,0.65
